Time;durP1;ratioP1;P1;durP2;ratioP2;P2;SDS_P1;SDS_P2;PMS_P1;PMS_P2;Temp;Humidity;BMP_temperature;BMP_pressure;BME280_temperature;BME280_humidity;BME280_pressure;Samples;Min_cycle;Max_cycle;Signal;HPM_P1;HPM_P2
2022/07/03 00:00:34;;;;;;;;;;;;;;;;;;4993723;28;7022;-88
2022/07/03 00:03:00;;;;;;;;;;;;;;;;;;4993634;28;8415;-87
2022/07/03 00:05:26;;;;;;;;;;;;;;;;;;4993778;28;8429;-88
2022/07/03 00:07:52;;;;;;;;;;;;;;;;;;4992817;28;8610;-88
2022/07/03 00:10:17;;;;;;;;;;;;;;;;;;4993448;28;7130;-88
2022/07/03 00:12:43;;;;;;;;;;;;;;;;;;4993012;28;8370;-88
2022/07/03 00:15:09;;;;;;;;;;;;;;;;;;4993489;28;7065;-88
2022/07/03 00:17:35;;;;;;;;;;;;;;;;;;4993311;28;8676;-88
2022/07/03 00:20:00;;;;;;;;;;;;;;;;;;4993160;28;8447;-88
2022/07/03 00:22:30;;;;;;;;;;;;;;;;;;4993194;28;8432;-88
2022/07/03 00:25:04;;;;;;;;;;;;;;;;;;4992950;28;8807;-88
2022/07/03 00:27:32;;;;;;;;;;;;;;;;;;4993715;28;8641;-88
2022/07/03 00:30:00;;;;;;;;;;;;;;;;;;4992863;28;7223;-88
2022/07/03 00:32:26;;;;;;;;;;;;;;;;;;4992941;28;8475;-88
2022/07/03 00:34:52;;;;;;;;;;;;;;;;;;4992720;28;8421;-88
2022/07/03 00:37:19;;;;;;;;;;;;;;;;;;4992714;28;7040;-88
2022/07/03 00:39:45;;;;;;;;;;;;;;;;;;4992952;28;8430;-89
2022/07/03 00:42:12;;;;;;;;;;;;;;;;;;4992757;28;6999;-88
2022/07/03 00:45:00;;;;;;;;;;;;;;;;;;4992723;28;8320;-88
2022/07/03 00:47:27;;;;;;;;;;;;;;;;;;4993259;28;8462;-88
2022/07/03 00:49:54;;;;;;;;;;;;;;;;;;4993052;28;7241;-88
2022/07/03 00:52:21;;;;;;;;;;;;;;;;;;4992584;28;7254;-88
2022/07/03 00:54:54;;;;;;;;;;;;;;;;;;4992786;28;8307;-88
2022/07/03 00:57:20;;;;;;;;;;;;;;;;;;4992690;28;8484;-88
2022/07/03 00:59:46;;;;;;;;;;;;;;;;;;4992580;28;8267;-88
2022/07/03 01:02:20;;;;;;;;;;;;;;;;;;4992125;28;8358;-88
2022/07/03 01:05:01;;;;;;;;;;;;;;;;;;4992561;28;8307;-88
2022/07/03 01:07:38;;;;;;;;;;;;;;;;;;4992956;28;7153;-87
2022/07/03 01:10:10;;;;;;;;;;;;;;;;;;4992633;28;7185;-88
2022/07/03 01:12:44;;;;;;;;;;;;;;;;;;4992217;28;8450;-88
2022/07/03 01:15:11;;;;;;;;;;;;;;;;;;4992187;28;7428;-88
2022/07/03 01:17:46;;;;;;;;;;;;;;;;;;4991952;28;7277;-88
2022/07/03 01:20:11;;;;;;;;;;;;;;;;;;4991955;28;7623;-88
2022/07/03 01:22:43;;;;;;;;;;;;;;;;;;4992242;28;8391;-88
2022/07/03 01:25:14;;;;;;;;;;;;;;;;;;4991770;28;7045;-88
2022/07/03 01:28:06;;;;;;;;;;;;;;;;;;4992055;28;8515;-88
2022/07/03 01:30:35;;;;;;;;;;;;;;;;;;4991557;28;8566;-89
2022/07/03 01:33:09;;;;;;;;;;;;;;;;;;4991694;28;6821;-88
2022/07/03 01:35:37;;;;;;;;;;;;;;;;;;4991597;28;6821;-88
2022/07/03 01:38:08;;;;;;;;;;;;;;;;;;4992240;28;8496;-88
2022/07/03 01:40:35;;;;;;;;;;;;;;;;;;4991901;28;8477;-88
2022/07/03 01:43:02;;;;;;;;;;;;;;;;;;4991853;28;8722;-88
2022/07/03 01:45:31;;;;;;;;;;;;;;;;;;4991850;28;7235;-88
2022/07/03 01:47:58;;;;;;;;;;;;;;;;;;4991805;28;8468;-88
2022/07/03 01:50:24;;;;;;;;;;;;;;;;;;4991517;28;9374;-88
2022/07/03 01:52:52;;;;;;;;;;;;;;;;;;4991804;28;8581;-88
2022/07/03 01:55:19;;;;;;;;;;;;;;;;;;4991511;28;8605;-88
2022/07/03 01:57:46;;;;;;;;;;;;;;;;;;4991217;28;8428;-89
2022/07/03 02:00:14;;;;;;;;;;;;;;;;;;4991423;28;7168;-88
2022/07/03 02:02:46;;;;;;;;;;;;;;;;;;4991260;28;8447;-88
2022/07/03 02:05:23;;;;;;;;;;;;;;;;;;4991427;28;7163;-88
2022/07/03 02:08:01;;;;;;;;;;;;;;;;;;4992001;28;7252;-88
2022/07/03 02:10:34;;;;;;;;;;;;;;;;;;4991276;28;8433;-89
2022/07/03 02:13:07;;;;;;;;;;;;;;;;;;4991340;28;8500;-88
2022/07/03 02:15:35;;;;;;;;;;;;;;;;;;4991338;28;8843;-88
2022/07/03 02:18:07;;;;;;;;;;;;;;;;;;4991311;28;8403;-88
2022/07/03 02:20:36;;;;;;;;;;;;;;;;;;4991589;28;8789;-89
2022/07/03 02:23:03;;;;;;;;;;;;;;;;;;4991099;28;7155;-88
2022/07/03 02:25:44;;;;;;;;;;;;;;;;;;4991493;28;7033;-88
2022/07/03 02:28:24;;;;;;;;;;;;;;;;;;4991730;28;8710;-87
2022/07/03 02:30:55;;;;;;;;;;;;;;;;;;4991390;28;8347;-88
2022/07/03 02:33:31;;;;;;;;;;;;;;;;;;4991038;28;7224;-88
2022/07/03 02:35:57;;;;;;;;;;;;;;;;;;4990957;28;8339;-89
2022/07/03 02:38:24;;;;;;;;;;;;;;;;;;4990899;28;8776;-88
2022/07/03 02:41:08;;;;;;;;;;;;;;;;;;4991390;28;8413;-88
2022/07/03 02:43:34;;;;;;;;;;;;;;;;;;4991010;28;8423;-88
2022/07/03 02:48:58;;;;;;;;;;;;;;;;;;4975784;28;6782;-89
2022/07/03 02:51:30;;;;;;;;;;;;;;;;;;4990854;28;8700;-88
2022/07/03 02:54:02;;;;;;;;;;;;;;;;;;4990684;28;7048;-89
2022/07/03 02:56:44;;;;;;;;;;;;;;;;;;4990767;28;8670;-89
2022/07/03 02:59:22;;;;;;;;;;;;;;;;;;4991038;28;8518;-87
2022/07/03 03:02:06;;;;;;;;;;;;;;;;;;4990816;28;8743;-88
2022/07/03 03:04:33;;;;;;;;;;;;;;;;;;4990585;28;7151;-89
2022/07/03 03:07:08;;;;;;;;;;;;;;;;;;4990777;28;8432;-88
2022/07/03 03:09:45;;;;;;;;;;;;;;;;;;4990757;28;7470;-87
2022/07/03 03:12:12;;;;;;;;;;;;;;;;;;4991290;28;7046;-88
2022/07/03 03:14:40;;;;;;;;;;;;;;;;;;4990551;28;8342;-88
2022/07/03 03:17:07;;;;;;;;;;;;;;;;;;4990557;28;7048;-88
2022/07/03 03:19:45;;;;;;;;;;;;;;;;;;4990685;28;8775;-88
2022/07/03 03:22:28;;;;;;;;;;;;;;;;;;4991072;28;8683;-88
2022/07/03 03:24:54;;;;;;;;;;;;;;;;;;4990525;28;8336;-88
2022/07/03 03:27:21;;;;;;;;;;;;;;;;;;4990275;28;8536;-88
2022/07/03 03:29:47;;;;;;;;;;;;;;;;;;4990319;28;9197;-88
2022/07/03 03:32:15;;;;;;;;;;;;;;;;;;4990668;28;7046;-88
2022/07/03 03:34:41;;;;;;;;;;;;;;;;;;4990591;28;7156;-88
2022/07/03 03:37:07;;;;;;;;;;;;;;;;;;4990613;28;8734;-89
2022/07/03 03:39:32;;;;;;;;;;;;;;;;;;4990808;28;7081;-88
2022/07/03 03:42:00;;;;;;;;;;;;;;;;;;4991713;28;8470;-88
2022/07/03 03:44:25;;;;;;;;;;;;;;;;;;4993851;28;7024;-87
2022/07/03 03:46:51;;;;;;;;;;;;;;;;;;4993919;28;9240;-88
2022/07/03 03:49:17;;;;;;;;;;;;;;;;;;4993890;28;9130;-88
2022/07/03 03:51:44;;;;;;;;;;;;;;;;;;4994377;28;8296;-88
2022/07/03 03:54:09;;;;;;;;;;;;;;;;;;4993607;28;8338;-88
2022/07/03 03:56:35;;;;;;;;;;;;;;;;;;4993488;28;8643;-88
2022/07/03 03:59:00;;;;;;;;;;;;;;;;;;4993403;28;7040;-87
2022/07/03 04:01:26;;;;;;;;;;;;;;;;;;4993626;28;8448;-89
2022/07/03 04:03:51;;;;;;;;;;;;;;;;;;4993584;28;8405;-88
2022/07/03 04:06:19;;;;;;;;;;;;;;;;;;4993735;28;8558;-89
2022/07/03 04:08:44;;;;;;;;;;;;;;;;;;4993827;28;8576;-88
2022/07/03 04:11:09;;;;;;;;;;;;;;;;;;4993529;28;8267;-88
2022/07/03 04:13:35;;;;;;;;;;;;;;;;;;4982162;28;8464;-89
2022/07/03 04:16:00;;;;;;;;;;;;;;;;;;4976103;28;8348;-88
2022/07/03 04:18:26;;;;;;;;;;;;;;;;;;4976912;28;7131;-88
2022/07/03 04:20:52;;;;;;;;;;;;;;;;;;4975870;28;8670;-88
2022/07/03 04:23:18;;;;;;;;;;;;;;;;;;4975982;28;7055;-88
2022/07/03 04:25:43;;;;;;;;;;;;;;;;;;4975546;28;7426;-88
2022/07/03 04:28:09;;;;;;;;;;;;;;;;;;4975615;28;7140;-88
2022/07/03 04:30:35;;;;;;;;;;;;;;;;;;4975776;28;8748;-88
2022/07/03 04:33:00;;;;;;;;;;;;;;;;;;5005279;28;8284;-87
2022/07/03 04:35:26;;;;;;;;;;;;;;;;;;4975338;28;7275;-88
2022/07/03 04:37:51;;;;;;;;;;;;;;;;;;4975663;28;7164;-88
2022/07/03 04:40:17;;;;;;;;;;;;;;;;;;4975201;28;7243;-88
2022/07/03 04:42:42;;;;;;;;;;;;;;;;;;4975176;28;8441;-88
2022/07/03 04:45:08;;;;;;;;;;;;;;;;;;4975283;28;8702;-88
2022/07/03 04:47:34;;;;;;;;;;;;;;;;;;4975471;28;7035;-89
2022/07/03 04:49:59;;;;;;;;;;;;;;;;;;4975235;28;7161;-87
2022/07/03 04:52:25;;;;;;;;;;;;;;;;;;4975407;28;8734;-88
2022/07/03 04:54:50;;;;;;;;;;;;;;;;;;4975954;28;7408;-89
2022/07/03 04:57:16;;;;;;;;;;;;;;;;;;4975546;28;8697;-88
2022/07/03 04:59:42;;;;;;;;;;;;;;;;;;4974090;28;8815;-89
2022/07/03 05:02:08;;;;;;;;;;;;;;;;;;4974692;28;7406;-88
2022/07/03 05:04:34;;;;;;;;;;;;;;;;;;4975083;28;7071;-89
2022/07/03 05:07:00;;;;;;;;;;;;;;;;;;4975193;28;8434;-89
2022/07/03 05:09:25;;;;;;;;;;;;;;;;;;4974760;28;8515;-87
2022/07/03 05:11:51;;;;;;;;;;;;;;;;;;4974482;28;7051;-87
2022/07/03 05:14:16;;;;;;;;;;;;;;;;;;4974986;28;7171;-87
2022/07/03 05:16:42;;;;;;;;;;;;;;;;;;4975371;28;8406;-88
2022/07/03 05:19:07;;;;;;;;;;;;;;;;;;4974945;28;7052;-87
2022/07/03 05:21:33;;;;;;;;;;;;;;;;;;4974578;28;7448;-87
2022/07/03 05:23:58;;;;;;;;;;;;;;;;;;4974409;28;7174;-88
2022/07/03 05:26:24;;;;;;;;;;;;;;;;;;4974254;28;8650;-88
2022/07/03 05:28:49;;;;;;;;;;;;;;;;;;4975024;28;8581;-87
2022/07/03 05:31:15;;;;;;;;;;;;;;;;;;4974276;28;8868;-88
2022/07/03 05:33:41;;;;;;;;;;;;;;;;;;4973915;28;8468;-87
2022/07/03 05:36:07;;;;;;;;;;;;;;;;;;4971316;28;8451;-87
2022/07/03 05:41:17;;;;;;;;;;;;;;;;;;4972977;28;7009;-87
2022/07/03 05:43:42;;;;;;;;;;;;;;;;;;4971754;28;7023;-87
2022/07/03 05:46:08;;;;;;;;;;;;;;;;;;4973091;28;8419;-87
2022/07/03 05:48:34;;;;;;;;;;;;;;;;;;4972828;28;7159;-88
2022/07/03 05:51:01;;;;;;;;;;;;;;;;;;5004048;28;8741;-88
2022/07/03 05:53:26;;;;;;;;;;;;;;;;;;4973671;28;8527;-87
2022/07/03 05:55:51;;;;;;;;;;;;;;;;;;4973556;28;8682;-87
2022/07/03 05:58:17;;;;;;;;;;;;;;;;;;4974051;28;8765;-85
2022/07/03 06:00:42;;;;;;;;;;;;;;;;;;4975062;28;7036;-78
2022/07/03 06:03:08;;;;;;;;;;;;;;;;;;4975446;28;8382;-89
2022/07/03 06:05:34;;;;;;;;;;;;;;;;;;4974374;28;8801;-88
2022/07/03 06:08:00;;;;;;;;;;;;;;;;;;4975240;28;8466;-87
2022/07/03 06:10:27;;;;;;;;;;;;;;;;;;4975082;28;8374;-87
2022/07/03 06:12:54;;;;;;;;;;;;;;;;;;4974949;28;8460;-87
2022/07/03 06:15:19;;;;;;;;;;;;;;;;;;4974970;28;7366;-87
2022/07/03 06:17:45;;;;;;;;;;;;;;;;;;4975212;28;7141;-87
2022/07/03 06:20:12;;;;;;;;;;;;;;;;;;4973747;28;7503;-86
2022/07/03 06:22:38;;;;;;;;;;;;;;;;;;4974138;28;8604;-86
2022/07/03 06:25:04;;;;;;;;;;;;;;;;;;4975977;28;8446;-86
2022/07/03 06:27:30;;;;;;;;;;;;;;;;;;4974871;28;7083;-87
2022/07/03 06:29:55;;;;;;;;;;;;;;;;;;4974350;28;8444;-87
2022/07/03 06:32:21;;;;;;;;;;;;;;;;;;4973538;28;8359;-88
2022/07/03 06:34:47;;;;;;;;;;;;;;;;;;4972602;28;7166;-86
2022/07/03 06:37:13;;;;;;;;;;;;;;;;;;4972944;28;8653;-86
2022/07/03 06:39:39;;;;;;;;;;;;;;;;;;4972932;28;8477;-86
2022/07/03 06:42:05;;;;;;;;;;;;;;;;;;4973293;28;8628;-86
2022/07/03 06:44:31;;;;;;;;;;;;;;;;;;4973664;28;7205;-87
2022/07/03 06:46:57;;;;;;;;;;;;;;;;;;4974997;28;7036;-87
2022/07/03 06:49:24;;;;;;;;;;;;;;;;;;4975194;28;8734;-87
2022/07/03 06:51:50;;;;;;;;;;;;;;;;;;4974576;28;7046;-87
2022/07/03 06:54:15;;;;;;;;;;;;;;;;;;4973986;28;7044;-87
2022/07/03 06:56:42;;;;;;;;;;;;;;;;;;4974486;28;8357;-87
2022/07/03 06:59:08;;;;;;;;;;;;;;;;;;4974349;28;7191;-87
2022/07/03 07:01:34;;;;;;;;;;;;;;;;;;4974533;28;8305;-87
2022/07/03 07:04:00;;;;;;;;;;;;;;;;;;4974522;28;8477;-88
2022/07/03 07:06:26;;;;;;;;;;;;;;;;;;4974268;28;7123;-88
2022/07/03 07:08:51;;;;;;;;;;;;;;;;;;4974268;28;8360;-87
2022/07/03 07:11:17;;;;;;;;;;;;;;;;;;4974516;28;7360;-87
2022/07/03 07:13:42;;;;;;;;;;;;;;;;;;4974496;28;8542;-88
2022/07/03 07:16:08;;;;;;;;;;;;;;;;;;4976341;28;8416;-88
2022/07/03 07:18:34;;;;;;;;;;;;;;;;;;4977817;28;8657;-88
2022/07/03 07:21:00;;;;;;;;;;;;;;;;;;4978184;28;8468;-88
2022/07/03 07:23:25;;;;;;;;;;;;;;;;;;4977572;28;8455;-88
2022/07/03 07:25:51;;;;;;;;;;;;;;;;;;4977935;28;7116;-87
2022/07/03 07:28:17;;;;;;;;;;;;;;;;;;4977053;28;8441;-87
2022/07/03 07:30:42;;;;;;;;;;;;;;;;;;4977791;28;8350;-87
2022/07/03 07:33:09;;;;;;;;;;;;;;;;;;4978171;28;8460;-87
2022/07/03 07:35:34;;;;;;;;;;;;;;;;;;4977574;28;8772;-87
2022/07/03 07:38:00;;;;;;;;;;;;;;;;;;4977644;28;9442;-87
2022/07/03 07:40:26;;;;;;;;;;;;;;;;;;4977635;28;7262;-86
2022/07/03 07:42:51;;;;;;;;;;;;;;;;;;4977930;28;8466;-87
2022/07/03 07:45:17;;;;;;;;;;;;;;;;;;4977539;28;8735;-87
2022/07/03 07:47:43;;;;;;;;;;;;;;;;;;4977599;28;9002;-87
2022/07/03 07:50:10;;;;;;;;;;;;;;;;;;4977293;28;8471;-88
2022/07/03 07:52:35;;;;;;;;;;;;;;;;;;4977472;28;8555;-87
2022/07/03 07:55:01;;;;;;;;;;;;;;;;;;4977379;28;7375;-87
2022/07/03 07:57:33;;;;;;;;;;;;;;;;;;4977384;28;8760;-88
2022/07/03 07:59:59;;;;;;;;;;;;;;;;;;4973352;28;8580;-84
2022/07/03 08:07:54;;;;;;;;;;;;;;;;;;4976566;28;7020;-87
2022/07/03 08:10:19;;;;;;;;;;;;;;;;;;4973258;28;8529;-87
2022/07/03 08:12:44;;;;;;;;;;;;;;;;;;4974922;28;8829;-90
2022/07/03 08:15:10;;;;;;;;;;;;;;;;;;4976930;28;8488;-91
2022/07/03 08:17:35;;;;;;;;;;;;;;;;;;4976491;28;8790;-90
2022/07/03 08:20:01;;;;;;;;;;;;;;;;;;4975317;28;8857;-89
2022/07/03 08:22:26;;;;;;;;;;;;;;;;;;4975059;28;8457;-84
2022/07/03 08:24:52;;;;;;;;;;;;;;;;;;4974014;28;8483;-85
2022/07/03 08:27:17;;;;;;;;;;;;;;;;;;4974290;28;8541;-80
2022/07/03 08:29:43;;;;;;;;;;;;;;;;;;4975233;28;7225;-85
2022/07/03 08:32:09;;;;;;;;;;;;;;;;;;4974356;28;7186;-83
2022/07/03 08:34:35;;;;;;;;;;;;;;;;;;4974094;28;8422;-82
2022/07/03 08:37:00;;;;;;;;;;;;;;;;;;4974028;28;8480;-88
2022/07/03 08:39:26;;;;;;;;;;;;;;;;;;4975231;28;8414;-88
2022/07/03 08:41:53;;;;;;;;;;;;;;;;;;4974585;28;8690;-88
2022/07/03 08:44:19;;;;;;;;;;;;;;;;;;4974090;28;8495;-88
2022/07/03 08:46:49;;;;;;;;;;;;;;;;;;4974642;28;8912;-87
2022/07/03 08:49:14;;;;;;;;;;;;;;;;;;4974380;28;8538;-87
2022/07/03 08:51:41;;;;;;;;;;;;;;;;;;4972819;28;8616;-87
2022/07/03 08:54:07;;;;;;;;;;;;;;;;;;4975309;28;9130;-87
2022/07/03 08:56:36;;;;;;;;;;;;;;;;;;4974837;28;8784;-87
2022/07/03 08:59:06;;;;;;;;;;;;;;;;;;4973267;28;8507;-87
2022/07/03 09:01:32;;;;;;;;;;;;;;;;;;4974051;28;8528;-84
2022/07/03 09:03:58;;;;;;;;;;;;;;;;;;4973894;28;8478;-86
2022/07/03 09:06:24;;;;;;;;;;;;;;;;;;4973410;28;8819;-87
2022/07/03 09:08:50;;;;;;;;;;;;;;;;;;4976628;28;6864;-88
2022/07/03 09:11:16;;;;;;;;;;;;;;;;;;4975182;28;8715;-79
2022/07/03 09:13:42;;;;;;;;;;;;;;;;;;4975733;28;8622;-87
2022/07/03 09:16:14;;;;;;;;;;;;;;;;;;4974079;28;7173;-83
2022/07/03 09:18:41;;;;;;;;;;;;;;;;;;5004291;28;8429;-87
2022/07/03 09:21:08;;;;;;;;;;;;;;;;;;4974449;28;8521;-84
2022/07/03 09:23:41;;;;;;;;;;;;;;;;;;4975920;28;8526;-87
2022/07/03 09:26:12;;;;;;;;;;;;;;;;;;4975370;28;6902;-91
2022/07/03 09:28:50;;;;;;;;;;;;;;;;;;4974043;28;8572;-87
2022/07/03 09:31:18;;;;;;;;;;;;;;;;;;4974763;28;8914;-86
2022/07/03 09:33:52;;;;;;;;;;;;;;;;;;4974317;28;8752;-87
2022/07/03 09:36:20;;;;;;;;;;;;;;;;;;4974413;28;8803;-87
2022/07/03 09:38:46;;;;;;;;;;;;;;;;;;4973527;28;8676;-87
2022/07/03 09:41:11;;;;;;;;;;;;;;;;;;4974566;28;7227;-85
2022/07/03 09:43:41;;;;;;;;;;;;;;;;;;4974385;28;7099;-88
2022/07/03 09:46:06;;;;;;;;;;;;;;;;;;4974417;28;7285;-86
2022/07/03 09:48:41;;;;;;;;;;;;;;;;;;4975292;28;8584;-86
2022/07/03 09:51:11;;;;;;;;;;;;;;;;;;4974719;28;7130;-87
2022/07/03 09:53:55;;;;;;;;;;;;;;;;;;4975164;28;8573;-83
2022/07/03 09:56:25;;;;;;;;;;;;;;;;;;4972682;28;7074;-82
2022/07/03 09:59:10;;;;;;;;;;;;;;;;;;4972942;28;7489;-79
2022/07/03 10:01:40;;;;;;;;;;;;;;;;;;4988321;28;8996;-80
2022/07/03 10:04:20;;;;;;;;;;;;;;;;;;4975062;28;8781;-88
2022/07/03 10:06:47;;;;;;;;;;;;;;;;;;4975289;28;8793;-88
2022/07/03 10:09:14;;;;;;;;;;;;;;;;;;4974885;28;7138;-87
2022/07/03 10:11:41;;;;;;;;;;;;;;;;;;4975397;28;8463;-87
2022/07/03 10:14:07;;;;;;;;;;;;;;;;;;4974416;28;8596;-87
2022/07/03 10:16:34;;;;;;;;;;;;;;;;;;4974796;28;7302;-88
2022/07/03 10:19:04;;;;;;;;;;;;;;;;;;4974716;28;8405;-88
2022/07/03 10:21:29;;;;;;;;;;;;;;;;;;4974658;28;8529;-88
2022/07/03 10:23:56;;;;;;;;;;;;;;;;;;4974676;28;8516;-88
2022/07/03 10:26:22;;;;;;;;;;;;;;;;;;4974470;28;7271;-88
2022/07/03 10:28:49;;;;;;;;;;;;;;;;;;4974261;28;7243;-88
2022/07/03 10:31:15;;;;;;;;;;;;;;;;;;4974244;28;8565;-87
2022/07/03 10:33:41;;;;;;;;;;;;;;;;;;4974355;28;8473;-88
2022/07/03 10:36:07;;;;;;;;;;;;;;;;;;4974229;28;8863;-88
2022/07/03 10:38:41;;;;;;;;;;;;;;;;;;4973885;28;8568;-88
2022/07/03 10:46:41;;;;;;;;;;;;;;;;;;4975286;28;7026;-88
2022/07/03 10:49:11;;;;;;;;;;;;;;;;;;4974052;28;8562;-88
2022/07/03 10:51:49;;;;;;;;;;;;;;;;;;4977498;28;7138;-88
2022/07/03 10:54:19;;;;;;;;;;;;;;;;;;4977874;28;7130;-87
2022/07/03 10:56:57;;;;;;;;;;;;;;;;;;4978646;28;8502;-87
2022/07/03 10:59:23;;;;;;;;;;;;;;;;;;4978206;28;8764;-88
2022/07/03 11:01:48;;;;;;;;;;;;;;;;;;4978210;28;8887;-88
2022/07/03 11:04:14;;;;;;;;;;;;;;;;;;4978420;28;8467;-88
2022/07/03 11:06:42;;;;;;;;;;;;;;;;;;4978343;28;8915;-87
2022/07/03 11:09:12;;;;;;;;;;;;;;;;;;4978442;28;8561;-88
2022/07/03 11:11:55;;;;;;;;;;;;;;;;;;4978194;28;8773;-88
2022/07/03 11:14:22;;;;;;;;;;;;;;;;;;4978083;28;8700;-88
2022/07/03 11:16:47;;;;;;;;;;;;;;;;;;4978094;28;8511;-88
2022/07/03 11:19:14;;;;;;;;;;;;;;;;;;4977855;28;8452;-87
2022/07/03 11:21:50;;;;;;;;;;;;;;;;;;4977820;28;9234;-88
2022/07/03 11:24:18;;;;;;;;;;;;;;;;;;4977769;28;8516;-88
2022/07/03 11:26:44;;;;;;;;;;;;;;;;;;4977726;28;9407;-89
2022/07/03 11:29:27;;;;;;;;;;;;;;;;;;4977731;28;8482;-88
2022/07/03 11:31:53;;;;;;;;;;;;;;;;;;4978200;28;8518;-89
2022/07/03 11:34:21;;;;;;;;;;;;;;;;;;4977513;28;8569;-88
2022/07/03 11:36:47;;;;;;;;;;;;;;;;;;4978136;28;6887;-88
2022/07/03 11:39:13;;;;;;;;;;;;;;;;;;4977581;28;8558;-87
2022/07/03 11:41:39;;;;;;;;;;;;;;;;;;4977608;28;8519;-88
2022/07/03 11:44:06;;;;;;;;;;;;;;;;;;4978605;28;8480;-88
2022/07/03 11:46:34;;;;;;;;;;;;;;;;;;4977573;28;7433;-88
2022/07/03 11:49:07;;;;;;;;;;;;;;;;;;4977479;28;8564;-88
2022/07/03 11:51:34;;;;;;;;;;;;;;;;;;4977857;28;7441;-88
2022/07/03 11:54:00;;;;;;;;;;;;;;;;;;4977459;28;7080;-88
2022/07/03 11:56:26;;;;;;;;;;;;;;;;;;4977631;28;7396;-88
2022/07/03 11:58:53;;;;;;;;;;;;;;;;;;4977487;28;6929;-88
2022/07/03 12:01:22;;;;;;;;;;;;;;;;;;4976978;28;8555;-88
2022/07/03 12:04:02;;;;;;;;;;;;;;;;;;4976359;28;8488;-87
2022/07/03 12:06:33;;;;;;;;;;;;;;;;;;4977624;28;8516;-88
2022/07/03 12:08:59;;;;;;;;;;;;;;;;;;4977308;28;8471;-88
2022/07/03 12:11:25;;;;;;;;;;;;;;;;;;4977048;28;7230;-87
2022/07/03 12:13:52;;;;;;;;;;;;;;;;;;4977067;28;8752;-88
2022/07/03 12:16:18;;;;;;;;;;;;;;;;;;4977339;28;9322;-88
2022/07/03 12:18:52;;;;;;;;;;;;;;;;;;4976675;28;9014;-88
2022/07/03 12:21:19;;;;;;;;;;;;;;;;;;4976834;28;8546;-89
2022/07/03 12:23:46;;;;;;;;;;;;;;;;;;4976666;28;7147;-88
2022/07/03 12:26:12;;;;;;;;;;;;;;;;;;4976588;28;8813;-88
2022/07/03 12:28:38;;;;;;;;;;;;;;;;;;4977019;28;7402;-88
2022/07/03 12:31:04;;;;;;;;;;;;;;;;;;4976937;28;7504;-88
2022/07/03 12:33:35;;;;;;;;;;;;;;;;;;4976421;28;8471;-88
2022/07/03 12:36:04;;;;;;;;;;;;;;;;;;4976584;28;8509;-88
2022/07/03 12:38:31;;;;;;;;;;;;;;;;;;4976562;28;7292;-88
2022/07/03 12:41:06;;;;;;;;;;;;;;;;;;4976937;28;8537;-88
2022/07/03 12:43:38;;;;;;;;;;;;;;;;;;4976115;28;8916;-87
2022/07/03 12:46:14;;;;;;;;;;;;;;;;;;4974372;28;7350;-81
2022/07/03 12:48:53;;;;;;;;;;;;;;;;;;4975765;28;8614;-81
2022/07/03 12:51:41;;;;;;;;;;;;;;;;;;4979254;28;8564;-80
2022/07/03 12:54:08;;;;;;;;;;;;;;;;;;4954793;28;8427;-82
2022/07/03 12:56:33;;;;;;;;;;;;;;;;;;4973815;28;8955;-80
2022/07/03 12:59:17;;;;;;;;;;;;;;;;;;4953464;28;11770;-91
2022/07/03 13:01:43;;;;;;;;;;;;;;;;;;4936657;28;11921;-88
2022/07/03 13:04:14;;;;;;;;;;;;;;;;;;4975142;28;8594;-89
2022/07/03 13:06:39;;;;;;;;;;;;;;;;;;4975036;28;7193;-89
2022/07/03 13:09:05;;;;;;;;;;;;;;;;;;4974683;28;8733;-88
2022/07/03 13:11:31;;;;;;;;;;;;;;;;;;4973284;28;8786;-91
2022/07/03 13:14:05;;;;;;;;;;;;;;;;;;4972754;28;8373;-90
2022/07/03 13:16:35;;;;;;;;;;;;;;;;;;4973673;28;8729;-88
2022/07/03 13:19:04;;;;;;;;;;;;;;;;;;4974333;28;9189;-86
2022/07/03 13:21:30;;;;;;;;;;;;;;;;;;4973253;28;7489;-80
2022/07/03 13:23:56;;;;;;;;;;;;;;;;;;4973788;28;8740;-82
2022/07/03 13:26:22;;;;;;;;;;;;;;;;;;4973847;28;8523;-80
2022/07/03 13:28:47;;;;;;;;;;;;;;;;;;4973958;28;8540;-80
2022/07/03 13:31:13;;;;;;;;;;;;;;;;;;4975687;28;8571;-77
2022/07/03 13:33:38;;;;;;;;;;;;;;;;;;4975253;28;8519;-78
2022/07/03 13:36:04;;;;;;;;;;;;;;;;;;4991263;28;8791;-77
2022/07/03 13:38:30;;;;;;;;;;;;;;;;;;4974464;28;8527;-81
2022/07/03 13:40:55;;;;;;;;;;;;;;;;;;4975096;28;7331;-81
2022/07/03 13:43:21;;;;;;;;;;;;;;;;;;4973907;28;8586;-80
2022/07/03 13:45:46;;;;;;;;;;;;;;;;;;4977160;28;9673;-81
2022/07/03 13:48:12;;;;;;;;;;;;;;;;;;4974084;28;7440;-81
2022/07/03 13:50:39;;;;;;;;;;;;;;;;;;4975204;28;9262;-82
2022/07/03 13:53:04;;;;;;;;;;;;;;;;;;4974945;28;8830;-80
2022/07/03 13:55:30;;;;;;;;;;;;;;;;;;4974942;28;8586;-79
2022/07/03 13:57:55;;;;;;;;;;;;;;;;;;4973747;28;9014;-80
2022/07/03 14:00:21;;;;;;;;;;;;;;;;;;4974661;28;8436;-88
2022/07/03 14:02:46;;;;;;;;;;;;;;;;;;4974340;28;8489;-88
2022/07/03 14:05:12;;;;;;;;;;;;;;;;;;4974035;28;8489;-88
2022/07/03 14:07:37;;;;;;;;;;;;;;;;;;4974670;28;8472;-85
2022/07/03 14:10:03;;;;;;;;;;;;;;;;;;4974694;28;8671;-84
2022/07/03 14:12:28;;;;;;;;;;;;;;;;;;4973824;28;9058;-84
2022/07/03 14:14:53;;;;;;;;;;;;;;;;;;4974850;28;8807;-87
2022/07/03 14:17:19;;;;;;;;;;;;;;;;;;4990739;28;8546;-80
2022/07/03 14:19:45;;;;;;;;;;;;;;;;;;4989441;28;7287;-80
2022/07/03 14:22:10;;;;;;;;;;;;;;;;;;4989310;28;8738;-78
2022/07/03 14:24:36;;;;;;;;;;;;;;;;;;4974287;28;8560;-80
2022/07/03 14:32:29;;;;;;;;;;;;;;;;;;4975934;28;6869;-88
2022/07/03 14:34:55;;;;;;;;;;;;;;;;;;4974788;28;8720;-87
2022/07/03 14:37:21;;;;;;;;;;;;;;;;;;4974927;28;8474;-88
2022/07/03 14:39:48;;;;;;;;;;;;;;;;;;4974900;28;9158;-88
2022/07/03 14:42:14;;;;;;;;;;;;;;;;;;4974979;28;8873;-88
2022/07/03 14:44:39;;;;;;;;;;;;;;;;;;4974598;28;7319;-88
2022/07/03 14:47:05;;;;;;;;;;;;;;;;;;4974794;28;8664;-86
2022/07/03 14:49:30;;;;;;;;;;;;;;;;;;4975059;28;8522;-87
2022/07/03 14:51:56;;;;;;;;;;;;;;;;;;4974568;28;8727;-87
2022/07/03 14:54:21;;;;;;;;;;;;;;;;;;4975150;28;8514;-88
2022/07/03 14:56:57;;;;;;;;;;;;;;;;;;4974795;28;8456;-88
2022/07/03 14:59:38;;;;;;;;;;;;;;;;;;4969116;28;7112;-88
2022/07/03 15:02:05;;;;;;;;;;;;;;;;;;4971907;28;7245;-88
2022/07/03 15:04:40;;;;;;;;;;;;;;;;;;4977626;28;8431;-86
2022/07/03 15:07:06;;;;;;;;;;;;;;;;;;4968675;28;8524;-82
2022/07/03 15:09:37;;;;;;;;;;;;;;;;;;4971589;28;8567;-83
2022/07/03 15:14:49;;;;;;;;;;;;;;;;;;4956753;29;6862;-83
2022/07/03 15:17:15;;;;;;;;;;;;;;;;;;4978280;28;8736;-84
2022/07/03 15:19:43;;;;;;;;;;;;;;;;;;4954675;29;7302;-88
2022/07/03 15:22:10;;;;;;;;;;;;;;;;;;4954975;29;8801;-88
2022/07/03 15:24:36;;;;;;;;;;;;;;;;;;4957816;28;8780;-87
2022/07/03 15:27:05;;;;;;;;;;;;;;;;;;4986187;28;7226;-87
2022/07/03 15:29:30;;;;;;;;;;;;;;;;;;4974221;28;8565;-91
2022/07/03 15:32:00;;;;;;;;;;;;;;;;;;4955039;29;8753;-89
2022/07/03 15:34:26;;;;;;;;;;;;;;;;;;4954740;29;8771;-88
2022/07/03 15:36:58;;;;;;;;;;;;;;;;;;4962895;28;8441;-87
2022/07/03 15:39:44;;;;;;;;;;;;;;;;;;4976812;28;8498;-88
2022/07/03 15:42:28;;;;;;;;;;;;;;;;;;4975200;28;8771;-88
2022/07/03 15:44:53;;;;;;;;;;;;;;;;;;4991408;28;8852;-88
2022/07/03 15:47:37;;;;;;;;;;;;;;;;;;4976018;28;8473;-83
2022/07/03 15:50:04;;;;;;;;;;;;;;;;;;4992670;28;8497;-89
2022/07/03 15:52:30;;;;;;;;;;;;;;;;;;4976099;28;8489;-89
2022/07/03 15:55:02;;;;;;;;;;;;;;;;;;4975356;28;8594;-89
2022/07/03 15:57:43;;;;;;;;;;;;;;;;;;4976981;28;8821;-88
2022/07/03 16:00:11;;;;;;;;;;;;;;;;;;4975892;28;8467;-90
2022/07/03 16:02:48;;;;;;;;;;;;;;;;;;4976091;28;8543;-89
2022/07/03 16:05:17;;;;;;;;;;;;;;;;;;4975626;28;7225;-90
2022/07/03 16:07:45;;;;;;;;;;;;;;;;;;4976149;28;8437;-88
2022/07/03 16:10:11;;;;;;;;;;;;;;;;;;4976753;28;7235;-90
2022/07/03 16:12:38;;;;;;;;;;;;;;;;;;4975658;28;8812;-89
2022/07/03 16:15:07;;;;;;;;;;;;;;;;;;4815648;28;13047;-88
2022/07/03 16:17:33;;;;;;;;;;;;;;;;;;4856313;28;384221;-89
2022/07/03 16:20:00;;;;;;;;;;;;;;;;;;4917951;28;8533;-88
2022/07/03 16:22:30;;;;;;;;;;;;;;;;;;4956587;28;8515;-89
2022/07/03 16:24:59;;;;;;;;;;;;;;;;;;4956470;28;8732;-90
2022/07/03 16:27:25;;;;;;;;;;;;;;;;;;4956939;28;7242;-90
2022/07/03 16:29:50;;;;;;;;;;;;;;;;;;4973175;28;8610;-81
2022/07/03 16:32:18;;;;;;;;;;;;;;;;;;4956488;28;7090;-80
2022/07/03 16:34:56;;;;;;;;;;;;;;;;;;4988502;28;8415;-88
2022/07/03 16:37:30;;;;;;;;;;;;;;;;;;4989777;28;8330;-89
2022/07/03 16:40:00;;;;;;;;;;;;;;;;;;4991065;28;6859;-88
2022/07/03 16:42:29;;;;;;;;;;;;;;;;;;4991724;28;8861;-88
2022/07/03 16:45:02;;;;;;;;;;;;;;;;;;4989825;28;8505;-88
2022/07/03 16:47:30;;;;;;;;;;;;;;;;;;4989882;28;8336;-90
2022/07/03 16:49:56;;;;;;;;;;;;;;;;;;4989051;28;8703;-90
2022/07/03 16:52:22;;;;;;;;;;;;;;;;;;4973551;28;8726;-90
2022/07/03 16:54:48;;;;;;;;;;;;;;;;;;4973427;28;8492;-90
2022/07/03 16:57:14;;;;;;;;;;;;;;;;;;4971991;28;7025;-90
2022/07/03 16:59:40;;;;;;;;;;;;;;;;;;4989148;28;8937;-92
2022/07/03 17:02:13;;;;;;;;;;;;;;;;;;4990087;28;8755;-90
2022/07/03 17:04:41;;;;;;;;;;;;;;;;;;4973072;28;7219;-89
2022/07/03 17:07:08;;;;;;;;;;;;;;;;;;4973394;28;8481;-88
2022/07/03 17:09:36;;;;;;;;;;;;;;;;;;4954765;28;6873;-89
2022/07/03 17:12:03;;;;;;;;;;;;;;;;;;4954733;28;8470;-88
2022/07/03 17:14:29;;;;;;;;;;;;;;;;;;4956285;28;8401;-88
2022/07/03 17:16:57;;;;;;;;;;;;;;;;;;4956676;28;8586;-87
2022/07/03 17:19:24;;;;;;;;;;;;;;;;;;4972653;28;8779;-88
2022/07/03 17:21:50;;;;;;;;;;;;;;;;;;4972719;28;8289;-87
2022/07/03 17:24:19;;;;;;;;;;;;;;;;;;4972776;28;8580;-80
2022/07/03 17:26:47;;;;;;;;;;;;;;;;;;4912594;28;12789;-87
2022/07/03 17:29:23;;;;;;;;;;;;;;;;;;4967229;28;8754;-88
2022/07/03 17:31:49;;;;;;;;;;;;;;;;;;4953407;28;8439;-87
2022/07/03 17:34:17;;;;;;;;;;;;;;;;;;4949546;28;7296;-88